Airport View

Enter AWOS ICAO identifier for current METAR.

ex. KFNL

KDKK 191811Z AUTO 26018G26KT 3/4SM -SN FEW008 BKN015 OVC020 M03/M06 A2993 RMK AO2 PK WND 26027/1755 P0000 T10281061

19 Jan 2020 18:30

Frequency: 119.275

Phone: 716-366-7664

Other Area AWOS: KJHW - CWPC - CWPS - KBUF

TAF KJHW 191720Z 1918/2018 27017G25KT 1SM -SN BLSN OVC015 FM192100 30016G23KT 1/2SM SN BLSN OVC015 FM200100 32014G20KT 1 1/2SM -SN OVC015 FM200400 34011KT 3SM -SN OVC015 FM200900 33009KT 6SM -SHSN OVC015 FM201300 33008KT P6SM VCSH BKN025